Terminal Aerodrome Forecast
Issued by NWS Indianapolis, IN

Home | Current Version | Previous Version | Text Only | Print | Product List | Glossary On
Versions: 1 2 3 4 5 6 7 8 9 10 11 12 13 14 15 16 17 18 19 20 21 22 23 24 25 26
000
FTUS43 KIND 232300
TAFIND
TAF
KIND 232320Z 2400/2506 VRB04KT P6SM SKC
     FM240100 09006KT P6SM OVC100
     FM241500 13012KT P6SM BKN100
     FM241800 14015G22KT P6SM BKN100
     FM242300 16012G18KT P6SM SCT050 OVC100
     FM250200 16012G18KT P6SM -SHRA OVC040=

USA.gov is the U.S. government's official web portal to all federal, state and local government web resources and services.